Time;durP1;ratioP1;P1;durP2;ratioP2;P2;SDS_P1;SDS_P2;PMS_P1;PMS_P2;Temp;Humidity;BMP_temperature;BMP_pressure;BME280_temperature;BME280_humidity;BME280_pressure;Samples;Min_cycle;Max_cycle;Signal;HPM_P1;HPM_P2
2024/03/04 00:01:42;;;;;;;37.70;25.27;;;;;;;;;;4975291;28;20208;-84
2024/03/04 00:04:08;;;;;;;31.60;21.20;;;;;;;;;;4994266;28;20434;-84
2024/03/04 00:06:34;;;;;;;33.77;22.37;;;;;;;;;;4996805;28;20830;-83
2024/03/04 00:09:00;;;;;;;32.90;21.00;;;;;;;;;;4994206;28;20504;-85
2024/03/04 00:11:26;;;;;;;32.95;22.15;;;;;;;;;;4994054;28;20442;-85
2024/03/04 00:13:52;;;;;;;32.95;21.63;;;;;;;;;;4995379;28;20250;-83
2024/03/04 00:16:18;;;;;;;32.17;21.52;;;;;;;;;;4995800;28;20633;-84
2024/03/04 00:18:44;;;;;;;38.20;24.33;;;;;;;;;;4995099;28;20211;-84
2024/03/04 00:21:10;;;;;;;34.30;20.57;;;;;;;;;;4993099;28;20828;-84
2024/03/04 00:23:36;;;;;;;28.60;16.20;;;;;;;;;;4981461;28;20431;-85
2024/03/04 00:26:02;;;;;;;28.80;18.97;;;;;;;;;;4980846;28;20219;-85
2024/03/04 00:28:28;;;;;;;37.40;23.70;;;;;;;;;;4966930;28;20466;-88
2024/03/04 00:30:54;;;;;;;35.40;22.47;;;;;;;;;;4997058;28;20482;-85
2024/03/04 00:33:20;;;;;;;37.20;20.20;;;;;;;;;;4991023;28;20423;-85
2024/03/04 00:35:46;;;;;;;33.40;19.13;;;;;;;;;;5000641;28;20234;-86
2024/03/04 00:38:12;;;;;;;39.90;21.42;;;;;;;;;;4993131;28;20183;-86
2024/03/04 00:40:38;;;;;;;42.43;23.50;;;;;;;;;;4994874;28;20203;-87
2024/03/04 00:43:07;;;;;;;38.70;23.45;;;;;;;;;;4994343;28;20426;-87
2024/03/04 00:45:33;;;;;;;36.65;21.35;;;;;;;;;;4983275;28;20561;-86
2024/03/04 00:47:59;;;;;;;43.00;22.37;;;;;;;;;;4972397;28;20191;-86
2024/03/04 00:50:25;;;;;;;39.83;22.00;;;;;;;;;;4993581;28;20998;-87
2024/03/04 00:52:51;;;;;;;35.13;21.00;;;;;;;;;;4977915;28;20444;-85
2024/03/04 00:55:17;;;;;;;34.53;20.93;;;;;;;;;;4994245;28;20537;-87
2024/03/04 00:57:43;;;;;;;36.78;20.83;;;;;;;;;;4999028;28;20410;-85
2024/03/04 01:00:14;;;;;;;34.90;21.92;;;;;;;;;;4994935;28;20195;-85
2024/03/04 01:02:40;;;;;;;37.38;19.83;;;;;;;;;;4988379;28;20238;-87
2024/03/04 01:05:06;;;;;;;38.20;20.92;;;;;;;;;;4994618;28;20186;-86
2024/03/04 01:07:32;;;;;;;39.72;22.05;;;;;;;;;;4993131;28;20650;-86
2024/03/04 01:09:58;;;;;;;35.40;17.70;;;;;;;;;;4983104;28;20219;-84
2024/03/04 01:12:24;;;;;;;38.73;21.10;;;;;;;;;;4994583;28;20528;-85
2024/03/04 01:14:50;;;;;;;31.37;19.30;;;;;;;;;;4979147;28;20423;-86
2024/03/04 01:17:17;;;;;;;35.78;21.17;;;;;;;;;;4992202;28;20490;-87
2024/03/04 01:19:46;;;;;;;41.10;22.77;;;;;;;;;;4993835;28;20576;-86
2024/03/04 01:22:16;;;;;;;36.40;21.15;;;;;;;;;;4990845;28;20191;-84
2024/03/04 01:24:45;;;;;;;44.72;22.67;;;;;;;;;;4999531;28;20636;-84
2024/03/04 01:27:12;;;;;;;38.45;22.13;;;;;;;;;;4991713;28;20180;-84
2024/03/04 01:29:38;;;;;;;50.45;23.55;;;;;;;;;;4994119;28;20182;-85
2024/03/04 01:32:04;;;;;;;40.67;22.83;;;;;;;;;;4976497;28;20271;-86
2024/03/04 01:34:30;;;;;;;47.60;22.98;;;;;;;;;;4976501;28;20187;-86
2024/03/04 01:36:56;;;;;;;41.73;22.40;;;;;;;;;;4997781;28;20237;-85
2024/03/04 01:39:22;;;;;;;47.40;25.13;;;;;;;;;;4995219;28;20429;-88
2024/03/04 01:41:48;;;;;;;38.92;20.73;;;;;;;;;;4998930;28;20203;-84
2024/03/04 01:44:14;;;;;;;44.17;23.58;;;;;;;;;;4997942;28;20222;-84
2024/03/04 01:46:44;;;;;;;40.87;23.47;;;;;;;;;;4997816;28;20187;-86
2024/03/04 01:49:10;;;;;;;48.20;24.17;;;;;;;;;;4979895;28;20520;-84
2024/03/04 01:51:36;;;;;;;47.67;25.48;;;;;;;;;;4980757;28;20183;-85
2024/03/04 01:54:03;;;;;;;43.88;24.33;;;;;;;;;;4984376;28;20229;-84
2024/03/04 01:56:30;;;;;;;49.13;27.38;;;;;;;;;;4999873;28;20254;-87
2024/03/04 01:58:56;;;;;;;49.45;26.42;;;;;;;;;;4996839;28;20182;-82
2024/03/04 02:01:25;;;;;;;52.30;25.23;;;;;;;;;;4967773;28;20663;-83
2024/03/04 02:03:52;;;;;;;42.38;24.02;;;;;;;;;;4997064;28;20180;-84
2024/03/04 02:06:18;;;;;;;54.03;27.95;;;;;;;;;;4991358;28;20231;-85
2024/03/04 02:08:44;;;;;;;56.30;28.92;;;;;;;;;;4978131;28;20270;-85
2024/03/04 02:11:12;;;;;;;53.40;29.05;;;;;;;;;;4961196;28;20238;-84
2024/03/04 02:13:38;;;;;;;57.00;29.08;;;;;;;;;;4976272;28;20640;-86
2024/03/04 02:16:04;;;;;;;50.95;28.30;;;;;;;;;;4959806;28;20207;-85
2024/03/04 02:18:30;;;;;;;47.97;22.73;;;;;;;;;;4960829;28;20180;-86
2024/03/04 02:21:00;;;;;;;46.58;27.60;;;;;;;;;;4977982;28;20207;-86
2024/03/04 02:23:26;;;;;;;56.55;31.30;;;;;;;;;;4968708;28;20194;-84
2024/03/04 02:25:53;;;;;;;58.63;30.03;;;;;;;;;;4977340;28;20180;-87
2024/03/04 02:28:19;;;;;;;58.10;27.70;;;;;;;;;;4975917;28;20442;-85
2024/03/04 02:30:45;;;;;;;53.22;28.38;;;;;;;;;;4973931;28;20177;-85
2024/03/04 02:33:12;;;;;;;43.47;26.67;;;;;;;;;;4961102;28;20191;-85
2024/03/04 02:35:40;;;;;;;38.88;24.05;;;;;;;;;;4960516;28;20260;-86
2024/03/04 02:38:06;;;;;;;34.22;23.30;;;;;;;;;;4960914;28;20247;-85
2024/03/04 02:40:33;;;;;;;32.55;20.75;;;;;;;;;;4956362;28;20652;-86
2024/03/04 02:42:59;;;;;;;29.80;18.40;;;;;;;;;;4975635;28;20571;-82
2024/03/04 02:45:25;;;;;;;19.80;13.30;;;;;;;;;;4977555;28;20177;-85
2024/03/04 02:47:51;;;;;;;27.55;18.10;;;;;;;;;;4959579;28;20180;-84
2024/03/04 02:50:17;;;;;;;26.45;16.45;;;;;;;;;;4976808;28;20280;-83
2024/03/04 02:52:44;;;;;;;25.38;16.55;;;;;;;;;;4959531;28;20231;-86
2024/03/04 02:55:10;;;;;;;24.95;18.58;;;;;;;;;;4974593;28;20178;-85
2024/03/04 02:57:36;;;;;;;26.17;17.33;;;;;;;;;;4977291;28;20183;-85
2024/03/04 03:00:02;;;;;;;23.38;17.33;;;;;;;;;;4976456;28;20196;-85
2024/03/04 03:02:28;;;;;;;22.92;14.48;;;;;;;;;;4964169;28;20199;-86
2024/03/04 03:04:54;;;;;;;26.53;16.60;;;;;;;;;;4965788;28;20179;-85
2024/03/04 03:07:20;;;;;;;19.83;14.90;;;;;;;;;;4987777;28;20478;-85
2024/03/04 03:09:46;;;;;;;21.67;17.15;;;;;;;;;;4994797;28;20485;-84
2024/03/04 03:12:12;;;;;;;16.97;12.87;;;;;;;;;;4994892;28;20219;-85
2024/03/04 03:14:39;;;;;;;25.40;15.60;;;;;;;;;;5000818;28;20449;-85
2024/03/04 03:17:05;;;;;;;28.88;16.50;;;;;;;;;;4993471;28;20440;-85
2024/03/04 03:19:33;;;;;;;22.65;14.70;;;;;;;;;;4995339;28;20191;-86
2024/03/04 03:21:59;;;;;;;24.25;15.80;;;;;;;;;;4995864;28;20233;-85
2024/03/04 03:24:25;;;;;;;28.03;16.63;;;;;;;;;;4989242;28;20196;-85
2024/03/04 03:26:51;;;;;;;26.10;16.42;;;;;;;;;;4991840;28;20439;-85
2024/03/04 03:29:17;;;;;;;23.00;15.50;;;;;;;;;;4993065;28;20195;-85
2024/03/04 03:31:44;;;;;;;23.33;14.70;;;;;;;;;;4995586;28;20183;-85
2024/03/04 03:34:10;;;;;;;28.40;17.42;;;;;;;;;;4984970;28;20535;-85
2024/03/04 03:36:42;;;;;;;23.15;16.50;;;;;;;;;;4996033;28;20214;-85
2024/03/04 03:39:09;;;;;;;40.90;21.00;;;;;;;;;;4989737;28;20166;-84
2024/03/04 03:41:36;;;;;;;41.65;26.00;;;;;;;;;;4996105;28;20297;-85
2024/03/04 03:44:02;;;;;;;38.47;22.75;;;;;;;;;;4995706;28;20211;-82
2024/03/04 03:46:28;;;;;;;43.28;22.88;;;;;;;;;;4993555;28;20197;-85
2024/03/04 03:48:55;;;;;;;42.55;24.70;;;;;;;;;;4978378;28;20175;-85
2024/03/04 03:51:21;;;;;;;42.72;25.25;;;;;;;;;;4994690;28;20573;-85
2024/03/04 03:53:47;;;;;;;43.33;24.53;;;;;;;;;;4992664;28;20179;-86
2024/03/04 03:56:13;;;;;;;43.97;24.23;;;;;;;;;;4994666;28;20986;-85
2024/03/04 03:58:39;;;;;;;47.13;24.48;;;;;;;;;;4995248;28;20791;-84
2024/03/04 04:01:05;;;;;;;41.45;23.25;;;;;;;;;;4994286;28;20211;-85
2024/03/04 04:03:33;;;;;;;42.27;26.00;;;;;;;;;;4981210;28;20196;-84
2024/03/04 04:05:59;;;;;;;45.15;25.45;;;;;;;;;;4992251;28;20484;-84
2024/03/04 04:08:25;;;;;;;42.22;23.85;;;;;;;;;;4993475;28;20209;-85
2024/03/04 04:10:51;;;;;;;43.55;26.00;;;;;;;;;;4995293;28;20202;-85
2024/03/04 04:13:19;;;;;;;38.22;23.95;;;;;;;;;;4990278;28;20182;-84
2024/03/04 04:15:45;;;;;;;40.30;25.88;;;;;;;;;;4992559;28;20203;-84
2024/03/04 04:18:11;;;;;;;37.58;21.80;;;;;;;;;;4993674;28;20183;-84
2024/03/04 04:20:37;;;;;;;37.17;23.27;;;;;;;;;;4996268;28;20265;-83
2024/03/04 04:23:03;;;;;;;33.73;19.30;;;;;;;;;;4998293;28;20211;-84
2024/03/04 04:25:29;;;;;;;35.78;22.27;;;;;;;;;;4993782;28;20449;-84
2024/03/04 04:27:56;;;;;;;46.72;25.02;;;;;;;;;;4994767;28;20180;-84
2024/03/04 04:30:22;;;;;;;39.38;22.13;;;;;;;;;;4994503;28;20647;-84
2024/03/04 04:32:48;;;;;;;34.38;20.90;;;;;;;;;;4980019;28;20201;-86
2024/03/04 04:35:14;;;;;;;37.03;21.43;;;;;;;;;;4993782;28;20279;-85
2024/03/04 04:37:42;;;;;;;33.13;19.60;;;;;;;;;;4995007;28;20886;-84
2024/03/04 04:40:09;;;;;;;29.45;18.50;;;;;;;;;;4994760;28;20461;-85
2024/03/04 04:42:35;;;;;;;28.90;18.95;;;;;;;;;;4992604;28;20184;-85
2024/03/04 04:45:01;;;;;;;29.73;18.47;;;;;;;;;;4994192;28;20194;-86
2024/03/04 04:47:29;;;;;;;35.93;18.43;;;;;;;;;;4999063;28;20423;-84
2024/03/04 04:49:55;;;;;;;32.03;19.35;;;;;;;;;;4999182;28;20458;-84
2024/03/04 04:52:21;;;;;;;29.33;17.00;;;;;;;;;;4994161;28;20606;-85
2024/03/04 04:54:48;;;;;;;27.25;17.50;;;;;;;;;;4995825;28;20457;-86
2024/03/04 04:57:15;;;;;;;25.00;17.17;;;;;;;;;;4995674;28;20179;-84
2024/03/04 04:59:41;;;;;;;31.13;17.13;;;;;;;;;;4979356;28;20187;-85
2024/03/04 05:02:08;;;;;;;26.45;18.58;;;;;;;;;;4993862;28;20264;-83
2024/03/04 05:04:34;;;;;;;31.08;19.45;;;;;;;;;;4994546;28;20175;-84
2024/03/04 05:07:00;;;;;;;28.05;18.52;;;;;;;;;;4999150;28;20228;-85
2024/03/04 05:09:26;;;;;;;29.30;20.02;;;;;;;;;;4991635;28;20176;-86
2024/03/04 05:11:52;;;;;;;23.77;16.30;;;;;;;;;;4998735;28;20202;-87
2024/03/04 05:14:19;;;;;;;26.57;18.20;;;;;;;;;;4981830;28;20434;-84
2024/03/04 05:16:45;;;;;;;31.10;20.13;;;;;;;;;;4974289;28;20467;-84
2024/03/04 05:19:11;;;;;;;29.33;19.05;;;;;;;;;;4998188;28;20196;-84
2024/03/04 05:21:37;;;;;;;34.47;22.20;;;;;;;;;;5003933;28;20199;-84
2024/03/04 05:24:03;;;;;;;35.58;22.73;;;;;;;;;;4999577;28;20436;-84
2024/03/04 05:26:29;;;;;;;33.83;21.15;;;;;;;;;;4997955;28;20182;-85
2024/03/04 05:28:55;;;;;;;30.55;21.60;;;;;;;;;;4995961;28;20282;-83
2024/03/04 05:31:21;;;;;;;41.97;23.25;;;;;;;;;;5002118;28;20281;-84
2024/03/04 05:33:47;;;;;;;34.10;22.80;;;;;;;;;;4996582;28;20199;-83
2024/03/04 05:36:13;;;;;;;38.33;22.57;;;;;;;;;;4997758;28;20183;-84
2024/03/04 05:38:39;;;;;;;36.40;23.75;;;;;;;;;;4983005;28;20435;-87
2024/03/04 05:41:05;;;;;;;36.60;22.48;;;;;;;;;;4997196;28;20244;-84
2024/03/04 05:43:31;;;;;;;41.83;23.77;;;;;;;;;;4996828;28;20703;-83
2024/03/04 05:45:58;;;;;;;40.65;23.50;;;;;;;;;;4978707;28;20184;-87
2024/03/04 05:48:24;;;;;;;43.15;25.50;;;;;;;;;;4995595;28;20171;-84
2024/03/04 05:50:50;;;;;;;38.75;25.42;;;;;;;;;;4980422;28;20507;-85
2024/03/04 05:53:16;;;;;;;38.40;22.40;;;;;;;;;;5000241;28;20587;-84
2024/03/04 05:55:42;;;;;;;38.30;23.42;;;;;;;;;;4980064;28;20183;-85
2024/03/04 05:58:09;;;;;;;38.25;24.30;;;;;;;;;;4997059;28;20179;-85
2024/03/04 06:00:35;;;;;;;30.92;17.65;;;;;;;;;;4997440;28;20537;-86
2024/03/04 06:03:02;;;;;;;38.08;22.02;;;;;;;;;;4996755;28;20183;-85
2024/03/04 06:05:28;;;;;;;36.10;22.50;;;;;;;;;;4995647;28;20175;-85
2024/03/04 06:07:57;;;;;;;38.23;21.70;;;;;;;;;;4963400;28;20371;-85
2024/03/04 06:10:24;;;;;;;32.78;20.50;;;;;;;;;;4977608;28;20826;-85
2024/03/04 06:12:50;;;;;;;29.83;18.52;;;;;;;;;;4976891;28;20531;-86
2024/03/04 06:15:16;;;;;;;32.27;18.90;;;;;;;;;;4960243;28;20180;-84
2024/03/04 06:17:42;;;;;;;30.88;17.30;;;;;;;;;;4969921;28;20407;-85
2024/03/04 06:20:09;;;;;;;25.13;16.10;;;;;;;;;;4966469;28;20208;-85
2024/03/04 06:22:36;;;;;;;29.40;18.27;;;;;;;;;;4971703;28;20579;-85
2024/03/04 06:25:02;;;;;;;30.63;17.90;;;;;;;;;;4959282;28;20194;-85
2024/03/04 06:27:28;;;;;;;36.58;18.33;;;;;;;;;;4973668;28;20186;-83
2024/03/04 06:29:54;;;;;;;25.80;17.37;;;;;;;;;;4972597;28;20274;-85
2024/03/04 06:32:20;;;;;;;26.35;19.83;;;;;;;;;;4974177;28;20431;-83
2024/03/04 06:34:46;;;;;;;29.77;17.53;;;;;;;;;;4958745;28;20176;-86
2024/03/04 06:37:14;;;;;;;28.33;15.40;;;;;;;;;;4970379;28;20427;-84
2024/03/04 06:39:40;;;;;;;34.58;19.05;;;;;;;;;;4972985;28;20415;-84
2024/03/04 06:42:06;;;;;;;31.27;17.98;;;;;;;;;;4971340;28;20645;-84
2024/03/04 06:44:32;;;;;;;29.83;16.52;;;;;;;;;;4977411;28;20207;-83
2024/03/04 06:46:58;;;;;;;32.90;17.25;;;;;;;;;;4977444;28;20269;-83
2024/03/04 06:49:24;;;;;;;33.85;18.25;;;;;;;;;;4974010;28;20552;-84
2024/03/04 06:51:50;;;;;;;32.15;19.05;;;;;;;;;;4951564;28;20645;-83
2024/03/04 06:54:16;;;;;;;34.80;18.17;;;;;;;;;;4974882;28;20199;-83
2024/03/04 06:56:42;;;;;;;39.10;20.07;;;;;;;;;;4977341;28;20942;-84
2024/03/04 06:59:08;;;;;;;29.37;20.27;;;;;;;;;;4956165;28;20460;-82
2024/03/04 07:01:34;;;;;;;37.13;20.03;;;;;;;;;;4977341;28;20474;-83
2024/03/04 07:04:00;;;;;;;31.35;18.00;;;;;;;;;;4977008;28;20421;-84
2024/03/04 07:06:26;;;;;;;34.67;18.80;;;;;;;;;;4981707;28;20231;-86
2024/03/04 07:08:52;;;;;;;33.00;17.52;;;;;;;;;;4995447;28;20176;-84
2024/03/04 07:11:19;;;;;;;28.50;18.77;;;;;;;;;;4996249;28;20197;-83
2024/03/04 07:13:45;;;;;;;31.45;18.92;;;;;;;;;;4993978;28;20262;-84
2024/03/04 07:16:17;;;;;;;28.03;18.00;;;;;;;;;;5002065;28;20222;-84
2024/03/04 07:18:43;;;;;;;29.05;17.58;;;;;;;;;;4996667;28;20486;-84
2024/03/04 07:21:14;;;;;;;25.67;17.05;;;;;;;;;;4999053;28;20214;-84
2024/03/04 07:23:41;;;;;;;25.08;16.05;;;;;;;;;;5003891;28;20273;-84
2024/03/04 07:26:08;;;;;;;28.60;17.17;;;;;;;;;;4996881;28;20186;-84
2024/03/04 07:28:34;;;;;;;27.08;16.73;;;;;;;;;;4992969;28;20628;-83
2024/03/04 07:31:00;;;;;;;23.35;17.48;;;;;;;;;;4994276;28;20722;-85
2024/03/04 07:33:26;;;;;;;36.83;17.87;;;;;;;;;;5000566;28;20186;-84
2024/03/04 07:35:52;;;;;;;28.40;17.00;;;;;;;;;;4985591;28;20439;-84
2024/03/04 07:38:19;;;;;;;29.43;17.77;;;;;;;;;;4978916;28;20183;-84
2024/03/04 07:40:45;;;;;;;24.10;15.40;;;;;;;;;;4993995;28;20517;-84
2024/03/04 07:43:11;;;;;;;24.20;17.03;;;;;;;;;;5006053;28;20194;-83
2024/03/04 07:45:37;;;;;;;22.35;17.30;;;;;;;;;;4978811;28;20454;-84
2024/03/04 07:48:03;;;;;;;27.57;15.20;;;;;;;;;;4996140;28;20183;-84
2024/03/04 07:50:29;;;;;;;24.05;16.00;;;;;;;;;;4993815;28;20434;-84
2024/03/04 07:52:55;;;;;;;25.40;16.83;;;;;;;;;;4980178;28;20183;-84
2024/03/04 07:55:21;;;;;;;23.40;16.20;;;;;;;;;;4995509;28;20423;-83
2024/03/04 07:57:47;;;;;;;24.75;15.80;;;;;;;;;;4995188;28;20202;-84
2024/03/04 08:00:13;;;;;;;25.13;16.30;;;;;;;;;;4997001;28;20617;-83
2024/03/04 08:02:43;;;;;;;21.45;14.65;;;;;;;;;;4974959;28;20472;-83
2024/03/04 08:05:09;;;;;;;23.02;15.95;;;;;;;;;;4996731;28;20179;-84
2024/03/04 08:07:39;;;;;;;22.80;15.13;;;;;;;;;;4986555;28;20231;-84
2024/03/04 08:10:08;;;;;;;23.55;16.33;;;;;;;;;;4995533;28;20183;-84
2024/03/04 08:12:35;;;;;;;30.75;15.32;;;;;;;;;;4995228;28;20184;-84
2024/03/04 08:15:01;;;;;;;16.88;13.35;;;;;;;;;;4992513;28;20203;-84
2024/03/04 08:17:27;;;;;;;17.95;12.98;;;;;;;;;;4995737;28;20186;-84
2024/03/04 08:19:54;;;;;;;22.02;12.82;;;;;;;;;;4995572;28;20171;-83
2024/03/04 08:22:20;;;;;;;19.95;14.90;;;;;;;;;;4995514;28;20194;-83
2024/03/04 08:24:47;;;;;;;24.13;15.48;;;;;;;;;;4995131;28;20176;-83
2024/03/04 08:27:13;;;;;;;19.05;14.07;;;;;;;;;;4992204;28;20262;-83
2024/03/04 08:29:40;;;;;;;20.50;14.20;;;;;;;;;;4993198;28;20703;-84
2024/03/04 08:32:06;;;;;;;20.40;12.77;;;;;;;;;;4994718;28;20438;-84
2024/03/04 08:34:32;;;;;;;16.90;12.07;;;;;;;;;;4994952;28;20186;-84
2024/03/04 08:36:58;;;;;;;16.23;12.82;;;;;;;;;;4994702;28;20180;-83
2024/03/04 08:39:24;;;;;;;17.40;12.70;;;;;;;;;;4994187;28;20187;-84
2024/03/04 08:41:50;;;;;;;18.13;11.60;;;;;;;;;;4995701;28;20586;-83
2024/03/04 08:44:17;;;;;;;16.50;12.10;;;;;;;;;;4994554;28;20242;-84
2024/03/04 08:46:43;;;;;;;17.17;11.75;;;;;;;;;;4999703;28;20922;-84
2024/03/04 08:49:09;;;;;;;18.60;12.40;;;;;;;;;;4996674;28;20180;-84
2024/03/04 08:51:35;;;;;;;14.93;11.60;;;;;;;;;;4997284;28;20242;-84
2024/03/04 08:54:01;;;;;;;14.10;10.18;;;;;;;;;;4999252;28;20213;-84
2024/03/04 08:56:27;;;;;;;15.40;11.17;;;;;;;;;;4999362;28;20249;-84
2024/03/04 08:58:56;;;;;;;14.38;11.13;;;;;;;;;;4999010;28;20415;-85
2024/03/04 09:01:24;;;;;;;12.20;9.75;;;;;;;;;;4998856;28;20238;-83
2024/03/04 09:03:50;;;;;;;13.45;10.40;;;;;;;;;;4992040;28;20262;-83
2024/03/04 09:06:16;;;;;;;16.25;9.95;;;;;;;;;;4998604;28;20574;-82
2024/03/04 09:08:43;;;;;;;18.60;11.27;;;;;;;;;;4995505;28;20226;-84
2024/03/04 09:11:09;;;;;;;13.20;10.10;;;;;;;;;;4999342;28;20650;-82
2024/03/04 09:13:35;;;;;;;16.95;10.63;;;;;;;;;;4998487;28;20210;-83
2024/03/04 09:16:02;;;;;;;14.27;10.85;;;;;;;;;;4993691;28;20180;-83
2024/03/04 09:18:28;;;;;;;13.98;10.80;;;;;;;;;;4995694;28;20176;-83
2024/03/04 09:20:54;;;;;;;15.30;10.15;;;;;;;;;;4989040;28;20208;-83
2024/03/04 09:23:20;;;;;;;14.60;10.07;;;;;;;;;;4999175;28;20211;-84
2024/03/04 09:25:46;;;;;;;12.35;9.93;;;;;;;;;;4998305;28;20171;-83
2024/03/04 09:28:12;;;;;;;14.73;11.40;;;;;;;;;;4998558;28;20592;-82
2024/03/04 09:30:38;;;;;;;15.60;10.00;;;;;;;;;;4998744;28;20259;-83
2024/03/04 09:33:04;;;;;;;11.80;9.57;;;;;;;;;;4998866;28;20175;-82
2024/03/04 09:35:30;;;;;;;17.45;10.70;;;;;;;;;;4996515;28;20187;-83
2024/03/04 09:37:56;;;;;;;14.77;11.33;;;;;;;;;;4998261;28;20206;-83
2024/03/04 09:40:22;;;;;;;18.10;11.43;;;;;;;;;;4996854;28;20470;-84
2024/03/04 09:42:48;;;;;;;18.17;12.00;;;;;;;;;;4998244;28;20519;-83
2024/03/04 09:45:15;;;;;;;14.07;12.18;;;;;;;;;;4998187;28;20178;-82
2024/03/04 09:47:42;;;;;;;18.65;13.90;;;;;;;;;;4990487;28;20197;-83
2024/03/04 09:50:08;;;;;;;15.02;13.23;;;;;;;;;;4997407;28;20180;-84
2024/03/04 09:52:35;;;;;;;20.13;13.48;;;;;;;;;;4997448;28;20659;-83
2024/03/04 09:55:01;;;;;;;22.77;13.32;;;;;;;;;;4998308;28;20179;-84
2024/03/04 09:57:28;;;;;;;22.17;12.73;;;;;;;;;;4973975;28;20179;-84
2024/03/04 09:59:54;;;;;;;13.95;11.77;;;;;;;;;;4999893;28;20189;-84
2024/03/04 10:02:20;;;;;;;17.27;11.63;;;;;;;;;;4997691;28;20211;-84
2024/03/04 10:04:46;;;;;;;16.02;12.50;;;;;;;;;;5000474;28;20618;-84
2024/03/04 10:07:14;;;;;;;16.80;11.60;;;;;;;;;;4997674;28;20283;-84
2024/03/04 10:09:40;;;;;;;16.90;11.18;;;;;;;;;;4997580;28;20176;-84
2024/03/04 10:12:09;;;;;;;15.90;11.85;;;;;;;;;;4996173;28;20194;-84
2024/03/04 10:14:55;;;;;;;13.45;10.27;;;;;;;;;;4996036;28;20579;-83
2024/03/04 10:17:21;;;;;;;16.50;10.77;;;;;;;;;;4997325;28;20512;-84
2024/03/04 10:19:56;;;;;;;10.73;9.60;;;;;;;;;;4996861;28;20171;-84
2024/03/04 10:22:23;;;;;;;13.68;11.07;;;;;;;;;;4996294;28;20445;-84
2024/03/04 10:24:58;;;;;;;17.70;11.73;;;;;;;;;;4990009;28;20187;-84
2024/03/04 10:27:24;;;;;;;15.18;9.82;;;;;;;;;;4996133;28;20182;-83
2024/03/04 10:29:49;;;;;;;15.03;11.20;;;;;;;;;;4995017;28;20242;-84
2024/03/04 10:32:17;;;;;;;10.60;9.33;;;;;;;;;;4995037;28;20462;-81
2024/03/04 10:34:43;;;;;;;12.93;9.48;;;;;;;;;;4986936;28;20418;-84
2024/03/04 10:37:09;;;;;;;14.40;9.60;;;;;;;;;;4997464;28;20182;-83
2024/03/04 10:39:37;;;;;;;13.48;9.40;;;;;;;;;;4972764;28;20493;-84
2024/03/04 10:42:03;;;;;;;12.85;9.30;;;;;;;;;;4994352;28;20223;-85
2024/03/04 10:44:29;;;;;;;13.43;8.98;;;;;;;;;;4990492;28;20186;-85
2024/03/04 10:46:55;;;;;;;13.87;9.23;;;;;;;;;;4996858;28;20254;-83
2024/03/04 10:49:24;;;;;;;9.52;8.25;;;;;;;;;;4996356;28;20918;-84
2024/03/04 10:51:51;;;;;;;10.07;8.63;;;;;;;;;;4996104;28;20258;-84
2024/03/04 10:54:22;;;;;;;18.60;8.85;;;;;;;;;;4996120;28;20314;-84
2024/03/04 10:56:59;;;;;;;14.85;8.80;;;;;;;;;;4979721;28;20673;-84
2024/03/04 10:59:38;;;;;;;8.70;7.70;;;;;;;;;;4983365;28;20172;-84
2024/03/04 11:02:18;;;;;;;9.95;6.72;;;;;;;;;;4996367;28;20253;-83
2024/03/04 11:04:45;;;;;;;10.30;7.47;;;;;;;;;;4991425;28;20175;-83
2024/03/04 11:07:12;;;;;;;9.45;6.93;;;;;;;;;;4995722;28;20234;-84
2024/03/04 11:09:39;;;;;;;7.78;6.00;;;;;;;;;;4996545;28;20171;-83
2024/03/04 11:12:06;;;;;;;12.45;6.03;;;;;;;;;;4995563;28;20284;-83
2024/03/04 11:14:37;;;;;;;10.02;5.85;;;;;;;;;;4996634;28;20194;-84
2024/03/04 11:17:20;;;;;;;12.27;7.05;;;;;;;;;;4996554;28;20258;-84
2024/03/04 11:19:53;;;;;;;9.70;7.13;;;;;;;;;;4987747;28;20168;-84
2024/03/04 11:22:19;;;;;;;10.18;6.68;;;;;;;;;;4996169;28;20214;-84
2024/03/04 11:24:46;;;;;;;8.85;6.88;;;;;;;;;;4995929;28;20172;-84
2024/03/04 11:27:15;;;;;;;9.57;6.60;;;;;;;;;;4983171;28;20179;-83
2024/03/04 11:29:41;;;;;;;7.63;6.75;;;;;;;;;;4995526;28;20175;-84
2024/03/04 11:32:11;;;;;;;9.70;6.60;;;;;;;;;;4993332;28;20179;-84
2024/03/04 11:34:56;;;;;;;7.32;5.70;;;;;;;;;;4995251;28;20492;-84
2024/03/04 11:37:25;;;;;;;6.70;5.50;;;;;;;;;;4994261;28;20181;-84
2024/03/04 11:39:51;;;;;;;8.40;6.40;;;;;;;;;;4995349;28;20183;-84
2024/03/04 11:42:33;;;;;;;9.07;6.07;;;;;;;;;;4994510;28;20222;-84
2024/03/04 11:44:59;;;;;;;7.47;6.30;;;;;;;;;;4996627;28;20932;-84
2024/03/04 11:47:32;;;;;;;6.82;5.20;;;;;;;;;;4995414;28;20169;-84
2024/03/04 11:49:59;;;;;;;7.50;6.07;;;;;;;;;;4995777;28;20171;-84
2024/03/04 11:52:28;;;;;;;5.18;4.60;;;;;;;;;;4995671;28;20250;-84
2024/03/04 11:54:56;;;;;;;7.85;5.18;;;;;;;;;;4994905;28;20651;-84
2024/03/04 11:57:24;;;;;;;6.57;5.47;;;;;;;;;;4998076;28;20267;-84
2024/03/04 11:59:57;;;;;;;8.00;4.63;;;;;;;;;;5003258;28;20175;-83
2024/03/04 12:02:23;;;;;;;7.68;4.88;;;;;;;;;;4985166;28;20190;-83
2024/03/04 12:04:49;;;;;;;5.95;4.78;;;;;;;;;;4994770;28;20172;-83
2024/03/04 12:07:16;;;;;;;6.93;5.10;;;;;;;;;;4986173;28;20231;-82
2024/03/04 12:09:42;;;;;;;8.50;5.15;;;;;;;;;;4976851;28;20896;-83
2024/03/04 12:12:11;;;;;;;7.17;5.67;;;;;;;;;;4976234;28;20190;-82
2024/03/04 12:14:37;;;;;;;8.95;5.55;;;;;;;;;;4974657;28;20415;-83
2024/03/04 12:17:03;;;;;;;7.80;5.67;;;;;;;;;;4976027;28;20711;-83
2024/03/04 12:19:29;;;;;;;6.63;4.85;;;;;;;;;;4973641;28;20838;-86
2024/03/04 12:21:55;;;;;;;5.30;4.47;;;;;;;;;;4973298;28;20208;-84
2024/03/04 12:24:26;;;;;;;6.05;4.40;;;;;;;;;;4974751;28;20980;-83
2024/03/04 12:26:54;;;;;;;5.80;4.40;;;;;;;;;;4970675;28;20176;-83
2024/03/04 12:29:24;;;;;;;6.93;5.50;;;;;;;;;;4969646;28;20181;-83
2024/03/04 12:31:53;;;;;;;5.75;4.60;;;;;;;;;;4979924;28;20188;-84
2024/03/04 12:34:19;;;;;;;6.32;5.72;;;;;;;;;;4973071;28;20188;-83
2024/03/04 12:36:49;;;;;;;7.90;5.28;;;;;;;;;;4974958;28;20180;-83
2024/03/04 12:39:16;;;;;;;6.75;5.05;;;;;;;;;;4971767;28;20267;-83
2024/03/04 12:41:42;;;;;;;7.82;4.57;;;;;;;;;;4958270;28;20487;-81
2024/03/04 12:44:08;;;;;;;6.35;5.53;;;;;;;;;;4978053;28;20233;-84
2024/03/04 12:46:38;;;;;;;7.32;4.57;;;;;;;;;;4982203;28;20251;-78
2024/03/04 12:49:05;;;;;;;8.02;4.63;;;;;;;;;;4975710;28;20168;-83
2024/03/04 12:51:35;;;;;;;5.72;4.15;;;;;;;;;;4975165;28;20184;-82
2024/03/04 12:54:03;;;;;;;8.02;4.70;;;;;;;;;;4982127;28;20191;-83
2024/03/04 12:56:29;;;;;;;6.28;5.18;;;;;;;;;;4980574;28;20178;-83
2024/03/04 12:58:55;;;;;;;7.70;4.75;;;;;;;;;;4955371;28;20719;-84
2024/03/04 13:01:23;;;;;;;7.03;4.00;;;;;;;;;;4975899;28;20199;-85
2024/03/04 13:03:49;;;;;;;9.05;5.40;;;;;;;;;;4953570;28;20431;-85
2024/03/04 13:06:15;;;;;;;5.68;4.50;;;;;;;;;;4978625;28;20231;-84
2024/03/04 13:08:41;;;;;;;5.40;4.90;;;;;;;;;;4993053;28;20202;-85
2024/03/04 13:11:07;;;;;;;6.80;5.20;;;;;;;;;;4998268;28;20183;-84
2024/03/04 13:13:33;;;;;;;6.70;4.50;;;;;;;;;;4980477;28;20184;-85
2024/03/04 13:15:59;;;;;;;6.03;5.10;;;;;;;;;;4993097;28;20461;-80
2024/03/04 13:18:26;;;;;;;4.32;3.92;;;;;;;;;;4993828;28;20402;-85
2024/03/04 13:20:52;;;;;;;4.50;3.78;;;;;;;;;;4993618;28;20230;-82
2024/03/04 13:23:18;;;;;;;4.47;3.70;;;;;;;;;;4994343;28;20183;-85
2024/03/04 13:25:44;;;;;;;6.13;4.10;;;;;;;;;;4978255;28;20203;-84
2024/03/04 13:28:10;;;;;;;5.13;4.65;;;;;;;;;;4993947;28;20427;-85
2024/03/04 13:30:36;;;;;;;7.60;3.87;;;;;;;;;;4992981;28;20196;-84
2024/03/04 13:33:02;;;;;;;7.33;4.80;;;;;;;;;;4997935;28;20501;-85
2024/03/04 13:35:28;;;;;;;5.43;3.42;;;;;;;;;;4994768;28;20418;-84
2024/03/04 13:37:54;;;;;;;4.90;3.70;;;;;;;;;;4996975;28;20191;-84
2024/03/04 13:40:20;;;;;;;5.57;4.00;;;;;;;;;;4997136;28;20469;-82
2024/03/04 13:42:46;;;;;;;4.40;4.00;;;;;;;;;;5000233;28;20511;-84
2024/03/04 13:45:12;;;;;;;4.07;3.50;;;;;;;;;;4997238;28;20450;-84
2024/03/04 13:47:39;;;;;;;4.30;3.87;;;;;;;;;;4980764;28;20521;-80
2024/03/04 13:50:05;;;;;;;6.03;3.50;;;;;;;;;;4997080;28;20412;-83
2024/03/04 13:52:31;;;;;;;4.75;2.80;;;;;;;;;;4997636;28;20628;-84
2024/03/04 13:54:57;;;;;;;3.30;3.00;;;;;;;;;;4996765;28;20610;-85
2024/03/04 13:57:23;;;;;;;5.97;3.90;;;;;;;;;;4994928;28;20426;-85
2024/03/04 13:59:49;;;;;;;3.85;3.40;;;;;;;;;;4995639;28;20437;-83
2024/03/04 14:02:15;;;;;;;4.72;3.35;;;;;;;;;;4997425;28;20277;-85
2024/03/04 14:04:41;;;;;;;3.23;2.80;;;;;;;;;;4981191;28;20230;-85
2024/03/04 14:07:07;;;;;;;6.83;3.10;;;;;;;;;;4996012;28;20490;-85
2024/03/04 14:09:33;;;;;;;3.17;2.57;;;;;;;;;;4996514;28;20914;-82
2024/03/04 14:11:59;;;;;;;2.80;2.60;;;;;;;;;;4996105;28;20453;-84
2024/03/04 14:14:25;;;;;;;4.90;3.37;;;;;;;;;;4996560;28;20898;-83
2024/03/04 14:16:51;;;;;;;3.20;2.63;;;;;;;;;;4997340;28;20418;-84
2024/03/04 14:19:18;;;;;;;3.47;3.10;;;;;;;;;;4996607;28;20429;-84
2024/03/04 14:21:44;;;;;;;5.83;3.30;;;;;;;;;;4996355;28;20774;-83